Time;durP1;ratioP1;P1;durP2;ratioP2;P2;SDS_P1;SDS_P2;PMS_P1;PMS_P2;Temp;Humidity;BMP_temperature;BMP_pressure;BME280_temperature;BME280_humidity;BME280_pressure;Samples;Min_cycle;Max_cycle;Signal;HPM_P1;HPM_P2
2023/11/15 00:01:54;;;;;;;5.50;4.00;;;;;;;8.93;100.00;96777.81;1225319;75;2915350;-62
2023/11/15 00:04:26;;;;;;;4.60;3.30;;;;;;;9.33;100.00;96773.34;1225880;75;2913212;-65
2023/11/15 00:06:59;;;;;;;4.95;2.85;;;;;;;9.48;100.00;96792.31;1224863;75;2925015;-62
2023/11/15 00:09:32;;;;;;;2.75;2.30;;;;;;;9.46;100.00;96816.63;1225179;75;2914201;-64
2023/11/15 00:12:05;;;;;;;2.95;2.35;;;;;;;9.27;100.00;96832.66;1225454;75;2913838;-63
2023/11/15 00:14:38;;;;;;;3.15;2.10;;;;;;;9.20;100.00;96841.28;1224819;75;2913670;-66
2023/11/15 00:17:14;;;;;;;5.30;3.40;;;;;;;8.56;100.00;96857.63;1224333;75;2913574;-61
2023/11/15 00:19:47;;;;;;;6.20;3.65;;;;;;;8.32;100.00;96863.31;1225585;75;2915049;-61
2023/11/15 00:22:22;;;;;;;5.30;4.00;;;;;;;8.23;100.00;96871.66;1224978;75;2922781;-62
2023/11/15 00:24:55;;;;;;;5.55;4.15;;;;;;;8.47;100.00;96885.09;1223380;75;2936405;-64
2023/11/15 00:27:29;;;;;;;4.65;3.20;;;;;;;8.52;100.00;96892.56;1225126;75;2917210;-63
2023/11/15 00:30:03;;;;;;;5.25;3.65;;;;;;;8.49;100.00;96907.16;1225497;75;2916027;-62
2023/11/15 00:32:38;;;;;;;4.30;3.40;;;;;;;8.56;100.00;96911.44;1224869;75;2927391;-64
2023/11/15 00:35:13;;;;;;;3.80;3.25;;;;;;;8.47;100.00;96932.19;1224554;75;2925614;-63
2023/11/15 00:37:45;;;;;;;3.95;3.25;;;;;;;8.29;100.00;96935.16;1225244;75;2912161;-65
2023/11/15 00:40:20;;;;;;;3.30;2.60;;;;;;;8.32;100.00;96936.94;1224398;75;2919635;-62
2023/11/15 00:42:54;;;;;;;3.55;2.55;;;;;;;8.57;100.00;96949.16;1224470;75;2927261;-65
2023/11/15 00:45:26;;;;;;;4.20;2.90;;;;;;;8.29;100.00;96960.44;1225055;75;2918977;-61
2023/11/15 00:48:04;;;;;;;5.10;3.90;;;;;;;8.31;100.00;96974.38;1223222;75;2947790;-65
2023/11/15 00:50:37;;;;;;;6.25;4.05;;;;;;;8.36;100.00;96962.03;1225561;75;2922944;-61
2023/11/15 00:53:09;;;;;;;4.10;3.70;;;;;;;7.96;100.00;96947.16;1224290;75;2918619;-64
2023/11/15 00:55:42;;;;;;;4.30;3.10;;;;;;;8.33;100.00;96939.19;1225161;75;2915128;-63
2023/11/15 00:58:16;;;;;;;5.05;3.40;;;;;;;8.19;100.00;96945.47;1225280;75;2917930;-64
2023/11/15 01:00:49;;;;;;;4.05;3.35;;;;;;;8.24;100.00;96949.50;1225259;75;2916341;-63
2023/11/15 01:03:29;;;;;;;4.00;3.35;;;;;;;8.28;100.00;96930.94;1224795;75;2933607;-66
2023/11/15 01:06:02;;;;;;;4.80;3.30;;;;;;;8.37;100.00;96921.88;1224433;75;2926246;-62
2023/11/15 01:08:35;;;;;;;4.50;3.10;;;;;;;8.29;100.00;96940.63;1225684;75;2917866;-64
2023/11/15 01:11:10;;;;;;;6.75;4.10;;;;;;;8.33;100.00;96952.09;1225964;67;2902110;-64
2023/11/15 01:13:42;;;;;;;5.35;3.75;;;;;;;8.53;100.00;96954.06;1224788;75;2919466;-63
2023/11/15 01:16:15;;;;;;;4.80;3.65;;;;;;;8.58;100.00;96961.56;1224987;75;2912637;-63
2023/11/15 01:18:53;;;;;;;6.50;4.00;;;;;;;8.44;100.00;96952.25;1225583;75;2913435;-68
2023/11/15 01:21:25;;;;;;;5.20;3.70;;;;;;;8.61;100.00;96949.72;1225253;75;2913219;-64
2023/11/15 01:23:58;;;;;;;3.45;2.60;;;;;;;8.75;100.00;96950.84;1224493;75;2930794;-66
2023/11/15 01:26:33;;;;;;;4.45;3.10;;;;;;;8.48;100.00;96946.56;1224608;75;2921773;-64
2023/11/15 01:29:05;;;;;;;4.55;3.10;;;;;;;8.53;100.00;96938.44;1224680;75;2916415;-64
2023/11/15 01:31:38;;;;;;;4.50;3.15;;;;;;;8.66;100.00;96938.09;1225640;75;2920871;-66
2023/11/15 01:34:15;;;;;;;3.95;2.95;;;;;;;8.56;100.00;96936.75;1224603;75;2918057;-65
2023/11/15 01:36:49;;;;;;;4.80;3.10;;;;;;;8.56;100.00;96936.00;1225079;75;2924330;-68
2023/11/15 01:39:23;;;;;;;3.60;2.80;;;;;;;8.59;100.00;96924.88;1224916;75;2915723;-64
2023/11/15 01:41:56;;;;;;;3.55;2.60;;;;;;;8.64;100.00;96926.91;1224926;75;2913098;-63
2023/11/15 01:44:29;;;;;;;3.75;2.65;;;;;;;8.50;100.00;96935.94;1224774;75;2920131;-64
2023/11/15 01:47:01;;;;;;;4.50;3.00;;;;;;;8.20;100.00;96952.44;1224910;75;2923901;-64
2023/11/15 01:49:37;;;;;;;3.85;3.30;;;;;;;8.34;100.00;96939.94;1225302;75;2917161;-65
2023/11/15 01:52:10;;;;;;;4.30;3.10;;;;;;;8.07;100.00;96941.09;1224666;75;2923540;-63
2023/11/15 01:54:43;;;;;;;3.85;3.45;;;;;;;8.01;100.00;96956.63;1224733;75;2917619;-65
2023/11/15 01:57:16;;;;;;;4.45;3.60;;;;;;;7.92;100.00;96949.34;1225156;75;2932437;-65
2023/11/15 01:59:49;;;;;;;5.20;3.90;;;;;;;7.92;100.00;96954.78;1225318;75;2917997;-64
2023/11/15 02:02:22;;;;;;;5.85;4.20;;;;;;;7.91;100.00;96969.63;1224886;75;2915063;-65
2023/11/15 02:04:57;;;;;;;6.30;4.30;;;;;;;7.94;100.00;96952.34;1224882;75;2907374;-66
2023/11/15 02:07:30;;;;;;;5.95;4.30;;;;;;;7.87;100.00;96948.03;1224773;75;2932833;-65
2023/11/15 02:10:04;;;;;;;5.15;3.85;;;;;;;8.00;100.00;96939.53;1225315;75;2927728;-64
2023/11/15 02:12:36;;;;;;;5.10;3.55;;;;;;;7.99;100.00;96959.09;1224645;75;2939694;-62
2023/11/15 02:15:12;;;;;;;4.85;3.30;;;;;;;8.13;100.00;96974.66;1224389;75;2925948;-65
2023/11/15 02:17:48;;;;;;;5.10;4.00;;;;;;;8.05;100.00;96965.34;1225113;75;2922629;-64
2023/11/15 02:20:24;;;;;;;6.05;4.45;;;;;;;7.94;100.00;96963.25;1224310;75;2920902;-65
2023/11/15 02:22:59;;;;;;;5.05;4.45;;;;;;;7.96;100.00;96963.53;1224953;75;2937904;-64
2023/11/15 02:25:38;;;;;;;4.90;4.15;;;;;;;7.95;100.00;96953.09;1224448;75;2922195;-63
2023/11/15 02:28:12;;;;;;;4.80;3.80;;;;;;;7.90;100.00;96977.03;1224578;75;2919945;-65
2023/11/15 02:30:44;;;;;;;4.55;3.85;;;;;;;7.70;100.00;96977.00;1224631;75;2918599;-67
2023/11/15 02:33:17;;;;;;;5.55;4.05;;;;;;;7.87;100.00;96978.00;1224416;75;2917802;-62
2023/11/15 02:35:50;;;;;;;4.05;3.00;;;;;;;8.04;100.00;96991.88;1224163;75;2921519;-62
2023/11/15 02:38:23;;;;;;;3.95;3.05;;;;;;;7.74;100.00;96983.00;1224023;75;2922339;-67
2023/11/15 02:40:58;;;;;;;3.85;3.05;;;;;;;7.98;100.00;96980.13;1224532;75;2924537;-64
2023/11/15 02:43:31;;;;;;;3.25;2.15;;;;;;;7.84;100.00;96976.22;1224875;75;2915932;-64
2023/11/15 02:46:03;;;;;;;3.05;2.65;;;;;;;7.74;100.00;96972.09;1224521;75;2923835;-61
2023/11/15 02:48:36;;;;;;;4.15;3.55;;;;;;;7.71;100.00;96988.66;1193148;75;5373294;-64
2023/11/15 02:51:10;;;;;;;3.00;2.70;;;;;;;7.84;100.00;96981.69;1224062;75;2919724;-63
2023/11/15 02:53:43;;;;;;;3.00;2.30;;;;;;;7.72;100.00;96981.97;1223946;75;2926899;-64
2023/11/15 02:56:19;;;;;;;2.65;2.25;;;;;;;7.79;100.00;96987.81;1224327;75;2921007;-64
2023/11/15 02:58:51;;;;;;;2.75;2.20;;;;;;;7.78;100.00;96991.00;1224506;75;2928774;-65
2023/11/15 03:01:24;;;;;;;2.10;1.90;;;;;;;7.80;100.00;97002.16;1224532;75;2933637;-64
2023/11/15 03:03:57;;;;;;;2.10;1.70;;;;;;;7.65;100.00;96989.31;1224581;75;2923798;-67
2023/11/15 03:06:29;;;;;;;2.70;2.05;;;;;;;7.61;100.00;96975.13;1224011;75;2923483;-63
2023/11/15 03:09:05;;;;;;;2.55;2.20;;;;;;;7.60;100.00;96983.78;1225149;75;2923151;-64
2023/11/15 03:11:40;;;;;;;1.60;1.45;;;;;;;7.59;100.00;96982.28;1224977;75;2926347;-63
2023/11/15 03:14:13;;;;;;;1.55;1.45;;;;;;;7.49;100.00;96986.34;1225089;75;2912318;-64
2023/11/15 03:16:47;;;;;;;2.35;2.05;;;;;;;7.15;100.00;96972.91;1225109;75;2920459;-64
2023/11/15 03:19:20;;;;;;;2.70;1.70;;;;;;;7.27;100.00;96965.69;1223928;75;2918497;-65
2023/11/15 03:21:52;;;;;;;2.65;2.25;;;;;;;7.30;100.00;96972.91;1224714;75;2926064;-64
2023/11/15 03:24:25;;;;;;;2.25;1.90;;;;;;;7.28;100.00;96975.34;1224932;75;2927479;-63
2023/11/15 03:27:00;;;;;;;2.60;2.10;;;;;;;7.15;100.00;96977.63;1225041;75;2918018;-64
2023/11/15 03:29:34;;;;;;;3.15;2.35;;;;;;;7.11;100.00;96966.16;1224035;75;2926772;-64
2023/11/15 03:32:07;;;;;;;2.70;2.20;;;;;;;6.95;100.00;96970.09;1224803;75;2913337;-61
2023/11/15 03:34:44;;;;;;;2.55;2.25;;;;;;;6.88;100.00;96971.22;1224457;75;2917180;-63
2023/11/15 03:37:17;;;;;;;2.10;1.90;;;;;;;6.86;100.00;96957.31;1224786;75;2916043;-62
2023/11/15 03:39:50;;;;;;;2.15;1.80;;;;;;;6.92;100.00;96971.03;1224469;75;2924654;-65
2023/11/15 03:42:25;;;;;;;3.10;2.80;;;;;;;6.39;100.00;96986.09;1225548;75;2921050;-70
2023/11/15 03:44:58;;;;;;;3.85;3.10;;;;;;;6.44;100.00;96974.56;1224179;75;2917100;-68
2023/11/15 03:47:30;;;;;;;3.05;2.75;;;;;;;6.46;100.00;96985.00;1223425;75;2930062;-71
2023/11/15 03:50:04;;;;;;;2.45;2.25;;;;;;;6.68;100.00;96981.97;1210974;75;3923788;-68
2023/11/15 03:52:37;;;;;;;3.05;2.25;;;;;;;6.72;100.00;96991.44;1224844;75;2918387;-65
2023/11/15 03:55:11;;;;;;;4.10;3.70;;;;;;;6.05;100.00;96996.25;1224462;75;2918448;-70
2023/11/15 03:57:47;;;;;;;4.75;3.85;;;;;;;6.26;100.00;96991.03;1197362;75;4945318;-69
2023/11/15 04:00:20;;;;;;;3.60;3.30;;;;;;;6.11;100.00;96993.66;1223438;75;2929540;-70
2023/11/15 04:02:53;;;;;;;3.80;3.35;;;;;;;6.23;100.00;97005.53;1223781;75;2945217;-70
2023/11/15 04:05:27;;;;;;;3.60;3.30;;;;;;;6.31;100.00;97001.25;1223393;75;2922426;-66
2023/11/15 04:08:00;;;;;;;2.50;2.30;;;;;;;6.30;100.00;97014.09;1224064;75;2896333;-70
2023/11/15 04:10:33;;;;;;;3.20;2.90;;;;;;;6.00;100.00;97001.59;1224206;75;2933996;-69
2023/11/15 04:13:09;;;;;;;2.80;2.50;;;;;;;6.23;100.00;97010.97;1223465;75;2928037;-66
2023/11/15 04:15:42;;;;;;;2.85;2.55;;;;;;;6.13;100.00;97002.09;1224856;75;2923128;-70
2023/11/15 04:18:14;;;;;;;2.60;2.25;;;;;;;6.14;100.00;97014.50;1223732;75;2937496;-69
2023/11/15 04:20:47;;;;;;;2.55;2.00;;;;;;;6.16;100.00;97009.34;1224398;75;2930376;-66
2023/11/15 04:23:20;;;;;;;2.60;2.10;;;;;;;6.14;100.00;97011.78;1223251;75;2921774;-70
2023/11/15 04:25:52;;;;;;;2.10;1.90;;;;;;;6.02;100.00;96999.16;1223381;75;2934398;-69
2023/11/15 04:28:28;;;;;;;1.60;1.50;;;;;;;6.05;100.00;97000.97;1224307;75;2927808;-69
2023/11/15 04:31:02;;;;;;;2.35;2.00;;;;;;;6.04;100.00;97008.38;1223384;75;2940715;-68
2023/11/15 04:33:35;;;;;;;2.20;2.00;;;;;;;5.76;100.00;97008.44;1223661;75;2911591;-65
2023/11/15 04:36:10;;;;;;;4.30;3.65;;;;;;;5.55;100.00;97004.75;1224762;75;2923775;-64
2023/11/15 04:38:43;;;;;;;3.55;3.20;;;;;;;5.84;100.00;97000.72;1224813;75;2913463;-68
2023/11/15 04:41:16;;;;;;;3.05;2.75;;;;;;;5.75;100.00;97001.53;1224122;75;2954510;-71
2023/11/15 04:43:51;;;;;;;3.70;3.40;;;;;;;5.48;100.00;97021.38;1223664;75;2923353;-63
2023/11/15 04:46:24;;;;;;;4.05;3.65;;;;;;;5.49;100.00;97017.44;1224890;75;2917345;-71
2023/11/15 04:48:56;;;;;;;4.55;4.05;;;;;;;5.39;100.00;97015.97;1223615;75;2924297;-65
2023/11/15 04:51:29;;;;;;;3.45;3.15;;;;;;;5.57;100.00;97028.72;1223807;75;2930668;-67
2023/11/15 04:54:03;;;;;;;3.00;2.65;;;;;;;5.59;100.00;97034.47;1224831;75;2922582;-71
2023/11/15 04:56:36;;;;;;;4.90;4.30;;;;;;;5.16;100.00;97032.91;1224329;75;2927450;-66
2023/11/15 04:59:12;;;;;;;5.10;4.50;;;;;;;5.10;100.00;97038.94;1224127;75;2929136;-69
2023/11/15 05:01:45;;;;;;;4.40;4.00;;;;;;;4.95;100.00;97037.28;1223206;75;2908659;-69
2023/11/15 05:04:18;;;;;;;4.75;4.15;;;;;;;4.94;100.00;97024.94;1223962;75;2919770;-68
2023/11/15 05:06:51;;;;;;;5.45;4.20;;;;;;;5.04;100.00;97048.13;1223439;75;2930733;-68
2023/11/15 05:09:24;;;;;;;7.15;4.30;;;;;;;4.84;100.00;97032.31;1225338;75;2919174;-70
2023/11/15 05:11:57;;;;;;;5.60;3.85;;;;;;;5.05;100.00;97036.06;1223558;75;2926493;-69
2023/11/15 05:14:32;;;;;;;4.25;3.65;;;;;;;5.17;100.00;97045.25;1223284;75;2928265;-67
2023/11/15 05:17:05;;;;;;;4.65;4.00;;;;;;;5.17;100.00;97046.03;1224260;75;2932567;-71
2023/11/15 05:19:38;;;;;;;5.05;4.10;;;;;;;5.05;100.00;97049.63;1222661;75;2914261;-69
2023/11/15 05:22:10;;;;;;;4.60;4.20;;;;;;;5.23;100.00;97065.91;1223500;75;2926832;-69
2023/11/15 05:24:43;;;;;;;7.15;6.25;;;;;;;5.38;100.00;97052.44;1223803;75;2919914;-68
2023/11/15 05:27:16;;;;;;;11.20;5.90;;;;;;;5.81;100.00;97058.69;1223523;75;2925114;-67
2023/11/15 05:29:51;;;;;;;6.10;3.85;;;;;;;6.02;100.00;97056.97;1222208;75;2924404;-68
2023/11/15 05:32:24;;;;;;;7.40;5.50;;;;;;;5.93;100.00;97057.72;1223926;75;2914441;-69
2023/11/15 05:34:56;;;;;;;4.35;3.50;;;;;;;6.11;100.00;97062.38;1222252;75;2922687;-70
2023/11/15 05:37:29;;;;;;;4.05;3.40;;;;;;;6.26;100.00;97058.97;1222224;75;2922580;-68
2023/11/15 05:40:02;;;;;;;4.80;3.50;;;;;;;6.22;100.00;97063.81;1224179;75;2926737;-69
2023/11/15 05:42:34;;;;;;;4.50;3.60;;;;;;;6.21;100.00;97059.63;1223563;75;2946597;-68
2023/11/15 05:45:12;;;;;;;4.25;3.45;;;;;;;6.17;100.00;97062.50;1223581;75;2924606;-69
2023/11/15 05:47:45;;;;;;;10.10;4.70;;;;;;;6.23;100.00;97052.50;1223825;75;2921473;-69
2023/11/15 05:50:18;;;;;;;82.00;7.65;;;;;;;6.31;100.00;97064.53;1223308;75;2925914;-65
2023/11/15 05:52:52;;;;;;;14.50;4.45;;;;;;;6.32;100.00;97065.28;1223321;75;2925457;-70
2023/11/15 05:55:25;;;;;;;11.90;3.50;;;;;;;6.44;100.00;97066.28;1224367;75;2936534;-67
2023/11/15 05:57:57;;;;;;;3.75;3.00;;;;;;;6.52;100.00;97070.91;1223869;75;2931054;-69
2023/11/15 06:00:33;;;;;;;5.25;3.05;;;;;;;6.60;100.00;97065.88;1221886;75;2946146;-69
2023/11/15 06:03:06;;;;;;;3.90;2.60;;;;;;;6.77;100.00;97074.38;1224140;75;2925333;-69
2023/11/15 06:05:38;;;;;;;5.05;2.70;;;;;;;6.78;100.00;97081.31;1223903;75;2922391;-68
2023/11/15 06:08:11;;;;;;;3.85;2.80;;;;;;;6.87;100.00;97091.38;1224249;75;2916751;-68
2023/11/15 06:10:47;;;;;;;3.85;2.65;;;;;;;6.83;100.00;97091.56;1224454;75;2927719;-68
2023/11/15 06:13:20;;;;;;;2.80;2.50;;;;;;;6.92;100.00;97096.19;1222083;75;2942118;-69
2023/11/15 06:15:55;;;;;;;2.65;2.15;;;;;;;6.91;100.00;97097.41;1223937;75;2922365;-69
2023/11/15 06:18:28;;;;;;;5.10;2.35;;;;;;;7.01;100.00;97110.47;1224950;75;2924206;-66
2023/11/15 06:21:00;;;;;;;25.75;2.75;;;;;;;7.32;100.00;97128.41;1223581;75;2921744;-68
2023/11/15 06:23:33;;;;;;;21.50;2.75;;;;;;;7.33;100.00;97124.44;1224795;75;2932490;-67
2023/11/15 06:26:11;;;;;;;14.15;2.25;;;;;;;7.38;100.00;97128.50;1223955;75;2925821;-69
2023/11/15 06:28:44;;;;;;;3.40;1.25;;;;;;;7.54;100.00;97125.31;1225041;75;2901508;-66
2023/11/15 06:31:22;;;;;;;1.95;1.20;;;;;;;7.67;100.00;97131.28;1224103;75;2930947;-69
2023/11/15 06:33:55;;;;;;;1.30;1.00;;;;;;;7.80;100.00;97136.44;1225143;75;2921289;-69
2023/11/15 06:36:28;;;;;;;1.50;1.20;;;;;;;7.73;100.00;97141.50;1224532;75;2931090;-67
2023/11/15 06:39:01;;;;;;;1.15;0.90;;;;;;;7.99;100.00;97164.25;1224301;75;2924681;-69
2023/11/15 06:41:38;;;;;;;35.90;3.00;;;;;;;8.29;100.00;97167.69;1222752;75;2917403;-70
2023/11/15 06:44:12;;;;;;;11.20;1.85;;;;;;;8.64;100.00;97171.75;1224161;75;2928106;-69
2023/11/15 06:46:47;;;;;;;16.85;1.85;;;;;;;8.94;100.00;97164.19;1225035;75;2925391;-69
2023/11/15 06:49:20;;;;;;;1.10;0.70;;;;;;;10.82;95.31;97168.97;1223642;75;2922312;-68
2023/11/15 06:51:53;;;;;;;1.20;0.80;;;;;;;12.40;82.68;97180.44;1224597;75;2933832;-69
2023/11/15 06:54:25;;;;;;;1.45;0.75;;;;;;;13.25;75.65;97190.00;1223372;75;2930748;-69
2023/11/15 06:56:58;;;;;;;0.70;0.50;;;;;;;14.41;69.36;97188.38;1224319;75;2925353;-64
2023/11/15 06:59:31;;;;;;;0.70;0.60;;;;;;;14.81;67.09;97183.28;1224271;75;2916786;-69
2023/11/15 07:02:07;;;;;;;43.50;2.60;;;;;;;15.37;64.51;97185.47;1223850;75;2929697;-68
2023/11/15 07:04:40;;;;;;;2.40;0.70;;;;;;;15.80;60.96;97184.66;1223651;67;2924681;-72
2023/11/15 07:07:14;;;;;;;1.55;0.85;;;;;;;17.02;60.13;97180.47;1224810;75;2919850;-68
2023/11/15 07:09:46;;;;;;;1.80;1.30;;;;;;;17.70;56.24;97187.44;1224595;75;2924492;-71
2023/11/15 07:12:19;;;;;;;12.05;5.90;;;;;;;19.37;51.62;97183.19;1224130;75;2920513;-71
2023/11/15 07:14:52;;;;;;;28.10;7.10;;;;;;;20.69;48.31;97187.84;1224652;75;2935669;-69
2023/11/15 07:17:28;;;;;;;5.90;1.80;;;;;;;19.44;49.85;97176.19;1223972;75;2922561;-69
2023/11/15 07:20:06;;;;;;;0.80;0.60;;;;;;;17.81;51.79;97183.72;1223204;75;2929207;-70
2023/11/15 07:22:40;;;;;;;1.70;0.50;;;;;;;15.13;58.63;97175.94;1214709;75;2927952;-68
2023/11/15 07:25:14;;;;;;;5.20;0.65;;;;;;;14.57;60.15;97170.97;1221300;75;2929973;-69
2023/11/15 07:27:46;;;;;;;6.45;0.75;;;;;;;14.59;61.64;97168.47;1222778;75;2919504;-69
2023/11/15 07:30:21;;;;;;;1.65;0.60;;;;;;;14.77;60.87;97156.03;1223222;75;2919909;-70
2023/11/15 07:32:57;;;;;;;5.10;1.00;;;;;;;14.07;62.53;97163.88;1222905;75;2929570;-68
2023/11/15 07:35:30;;;;;;;1.45;0.55;;;;;;;15.06;60.62;97139.94;1222151;75;2919614;-72
2023/11/15 07:38:04;;;;;;;2.70;0.70;;;;;;;17.79;53.51;97148.22;1222911;75;2928041;-66
2023/11/15 07:40:38;;;;;;;4.35;0.50;;;;;;;17.50;53.01;97138.31;1222155;75;2924714;-68
2023/11/15 07:43:13;;;;;;;1.35;0.60;;;;;;;17.31;53.10;97127.38;1222150;75;2924371;-68
2023/11/15 07:45:51;;;;;;;0.50;0.30;;;;;;;17.82;51.91;97127.81;1222685;75;2918294;-68
2023/11/15 07:48:27;;;;;;;0.20;0.20;;;;;;;18.77;50.64;97126.78;1223159;75;2920502;-70
2023/11/15 07:51:03;;;;;;;0.20;0.20;;;;;;;17.90;51.48;97127.16;1222399;75;2933689;-66
2023/11/15 07:53:35;;;;;;;0.40;0.20;;;;;;;18.76;49.24;97132.84;1222022;75;2923240;-69
2023/11/15 07:56:10;;;;;;;0.40;0.20;;;;;;;18.71;49.26;97129.69;1222797;75;2917097;-67
2023/11/15 07:58:43;;;;;;;0.40;0.25;;;;;;;19.58;48.10;97139.41;1222568;75;2927019;-67
2023/11/15 08:01:16;;;;;;;0.20;0.10;;;;;;;20.05;47.53;97140.28;1222527;75;2918199;-72
2023/11/15 08:03:53;;;;;;;0.45;0.20;;;;;;;19.48;47.42;97148.81;1221335;75;2920014;-64
2023/11/15 08:06:25;;;;;;;0.20;0.10;;;;;;;18.96;47.03;97159.09;1222999;75;2918979;-68
2023/11/15 08:08:58;;;;;;;0.40;0.20;;;;;;;20.09;46.58;97156.63;1222283;75;2946555;-70
2023/11/15 08:11:34;;;;;;;0.85;0.20;;;;;;;19.36;47.90;97153.94;1222336;75;2922768;-70
2023/11/15 08:14:10;;;;;;;0.20;0.20;;;;;;;18.67;48.21;97157.00;1220867;75;2919714;-70
2023/11/15 08:16:42;;;;;;;1.05;0.20;;;;;;;17.60;49.93;97164.25;1221695;75;2928241;-68
2023/11/15 08:19:18;;;;;;;0.35;0.20;;;;;;;18.51;49.46;97158.19;1223026;75;2922376;-69
2023/11/15 08:21:51;;;;;;;3.05;0.30;;;;;;;18.74;49.47;97150.78;1221466;75;2919412;-73
2023/11/15 08:24:25;;;;;;;0.80;0.40;;;;;;;19.28;47.78;97140.03;1222832;75;2917967;-71
2023/11/15 08:26:59;;;;;;;1.45;0.50;;;;;;;19.39;46.94;97150.06;1220952;75;2930078;-69
2023/11/15 08:29:32;;;;;;;1.80;0.60;;;;;;;19.61;46.51;97159.06;1221261;75;2933258;-68
2023/11/15 08:32:06;;;;;;;1.70;1.30;;;;;;;18.50;49.53;97160.22;1220056;75;2936276;-70
2023/11/15 08:34:41;;;;;;;2.35;1.30;;;;;;;18.11;47.44;97161.13;1222117;75;2919276;-71
2023/11/15 08:37:14;;;;;;;1.05;0.30;;;;;;;18.24;47.52;97158.31;1222278;75;2924004;-69
2023/11/15 08:39:47;;;;;;;0.50;0.30;;;;;;;17.85;47.80;97164.78;1222749;75;2922123;-71
2023/11/15 08:42:19;;;;;;;0.10;0.10;;;;;;;18.14;47.89;97151.78;1220956;75;2931217;-71
2023/11/15 08:44:53;;;;;;;0.30;0.30;;;;;;;17.60;48.15;97161.50;1222852;75;2926007;-71
2023/11/15 08:47:26;;;;;;;0.90;0.40;;;;;;;16.94;48.55;97167.84;1222926;75;2920825;-69
2023/11/15 08:50:01;;;;;;;1.05;0.65;;;;;;;17.90;47.98;97166.66;1221599;75;2926395;-73
2023/11/15 08:52:34;;;;;;;0.60;0.40;;;;;;;17.48;48.95;97171.31;1221586;75;2919035;-67
2023/11/15 08:55:08;;;;;;;3.90;0.30;;;;;;;16.49;48.47;97177.63;1221378;75;2920483;-71
2023/11/15 08:57:41;;;;;;;1.25;0.35;;;;;;;16.71;47.49;97170.97;1222700;75;2924811;-69
2023/11/15 09:00:16;;;;;;;1.30;0.50;;;;;;;17.41;47.75;97164.41;1222963;75;2919237;-67
2023/11/15 09:02:50;;;;;;;1.05;0.20;;;;;;;16.80;48.36;97180.91;1220680;75;2921561;-72
2023/11/15 09:05:26;;;;;;;1.55;0.75;;;;;;;17.19;48.03;97173.88;1221878;75;2922995;-68
2023/11/15 09:07:59;;;;;;;2.05;0.20;;;;;;;16.81;47.47;97191.44;1221485;75;2925276;-69
2023/11/15 09:10:32;;;;;;;0.45;0.20;;;;;;;17.61;46.22;97196.94;1224047;75;2928071;-71
2023/11/15 09:13:08;;;;;;;0.55;0.10;;;;;;;18.21;45.05;97200.22;1222859;75;2919127;-70
2023/11/15 09:15:41;;;;;;;1.95;0.30;;;;;;;16.13;44.94;97188.97;1222259;75;2926837;-70
2023/11/15 09:18:14;;;;;;;2.40;0.50;;;;;;;15.79;47.64;97180.44;1223278;75;2947864;-71
2023/11/15 09:20:50;;;;;;;0.65;0.50;;;;;;;16.90;44.80;97203.34;1223824;75;2932574;-69
2023/11/15 09:23:24;;;;;;;1.40;0.15;;;;;;;16.97;45.72;97211.00;1192563;75;5298829;-66
2023/11/15 09:25:58;;;;;;;0.25;0.15;;;;;;;16.26;46.89;97204.88;1223008;75;2923065;-66
2023/11/15 09:28:31;;;;;;;1.55;0.40;;;;;;;16.19;47.55;97208.22;1223178;75;2926212;-68
2023/11/15 09:31:05;;;;;;;0.60;0.10;;;;;;;16.41;47.53;97209.91;1223528;75;2921849;-71
2023/11/15 09:33:38;;;;;;;0.95;0.20;;;;;;;16.02;47.04;97216.75;1222148;75;2923570;-71
2023/11/15 09:36:15;;;;;;;0.25;0.20;;;;;;;16.73;45.60;97214.66;1221633;75;2925905;-68
2023/11/15 09:38:48;;;;;;;0.60;0.10;;;;;;;17.67;43.10;97202.34;1221124;75;2929554;-69
2023/11/15 09:41:22;;;;;;;1.05;0.20;;;;;;;15.86;46.59;97204.66;1223760;75;2927155;-69
2023/11/15 09:43:55;;;;;;;0.75;0.25;;;;;;;16.67;45.83;97206.47;1223002;75;2928575;-69
2023/11/15 09:46:29;;;;;;;0.70;0.10;;;;;;;16.37;45.23;97217.75;1222064;75;2927015;-70
2023/11/15 09:49:02;;;;;;;3.50;0.20;;;;;;;16.72;45.42;97224.97;1223426;75;2926713;-68
2023/11/15 09:51:38;;;;;;;0.25;0.20;;;;;;;16.84;44.44;97217.28;1223578;75;2930832;-69
2023/11/15 09:54:13;;;;;;;1.15;0.45;;;;;;;16.44;44.33;97217.13;1222324;75;2932381;-67
2023/11/15 09:56:49;;;;;;;0.60;0.40;;;;;;;15.89;45.52;97222.94;1223283;75;2936601;-73
2023/11/15 09:59:22;;;;;;;0.30;0.20;;;;;;;15.26;46.58;97210.41;1222240;75;2924467;-71
2023/11/15 10:01:57;;;;;;;0.85;0.30;;;;;;;16.43;44.56;97217.66;1220169;75;2933643;-69
2023/11/15 10:04:32;;;;;;;0.20;0.10;;;;;;;16.58;44.03;97223.44;1221928;75;2929518;-68
2023/11/15 10:07:11;;;;;;;0.20;0.10;;;;;;;16.13;44.94;97235.19;1223051;75;2933372;-70
2023/11/15 10:09:43;;;;;;;0.65;0.20;;;;;;;16.42;44.48;97244.53;1223118;75;2928621;-69
2023/11/15 10:12:18;;;;;;;0.10;0.10;;;;;;;16.16;45.54;97242.41;1223168;75;2927822;-70
2023/11/15 10:14:55;;;;;;;0.85;0.30;;;;;;;15.94;46.78;97233.16;1223416;75;2932892;-73
2023/11/15 10:17:43;;;;;;;0.05;0.05;;;;;;;15.64;47.80;97241.56;1223432;83;2928755;-68
2023/11/15 10:20:25;;;;;;;0.10;0.10;;;;;;;15.40;47.35;97249.88;1223992;75;2929348;-69
2023/11/15 10:23:01;;;;;;;0.20;0.10;;;;;;;15.74;47.11;97245.47;1221293;75;2925392;-67
2023/11/15 10:25:35;;;;;;;0.10;0.10;;;;;;;15.51;47.35;97244.22;1222341;75;2930482;-70
2023/11/15 10:28:10;;;;;;;1.95;0.30;;;;;;;15.90;47.35;97245.78;1222379;75;2923643;-68
2023/11/15 10:30:43;;;;;;;1.45;0.30;;;;;;;15.41;48.00;97252.09;1220795;75;2923510;-68
2023/11/15 10:33:17;;;;;;;0.15;0.15;;;;;;;15.50;48.37;97251.75;1220365;75;2925555;-68
2023/11/15 10:35:50;;;;;;;0.55;0.30;;;;;;;15.69;48.40;97265.56;1221154;75;2922627;-68
2023/11/15 10:38:26;;;;;;;0.20;0.20;;;;;;;15.32;47.46;97246.91;1221918;75;2927775;-70
2023/11/15 10:40:58;;;;;;;0.10;0.10;;;;;;;15.55;46.96;97244.66;1221552;75;2938750;-70
2023/11/15 10:43:32;;;;;;;1.05;0.10;;;;;;;16.25;45.78;97241.28;1221617;75;2936386;-71
2023/11/15 10:46:07;;;;;;;1.25;0.20;;;;;;;16.11;46.59;97246.72;1221330;75;2929161;-70
2023/11/15 10:48:42;;;;;;;17.75;1.20;;;;;;;15.13;47.75;97220.06;1220894;75;2947886;-70
2023/11/15 10:51:23;;;;;;;1.55;0.40;;;;;;;15.29;47.79;97243.19;1220721;75;2968905;-71
2023/11/15 10:54:01;;;;;;;0.45;0.20;;;;;;;15.71;47.71;97246.50;1220143;75;2927600;-69
2023/11/15 10:56:35;;;;;;;0.75;0.20;;;;;;;15.53;47.77;97242.41;1220580;75;2931183;-68
2023/11/15 10:59:10;;;;;;;1.60;0.15;;;;;;;15.49;47.51;97236.47;1221423;75;2926878;-70
2023/11/15 11:01:43;;;;;;;0.10;0.10;;;;;;;15.84;47.75;97254.13;1220183;75;2929889;-68
2023/11/15 11:04:17;;;;;;;0.10;0.10;;;;;;;16.69;45.23;97242.63;1221640;75;2928266;-68
2023/11/15 11:07:02;;;;;;;0.40;0.10;;;;;;;16.29;45.26;97244.50;1219708;75;2939629;-69
2023/11/15 11:09:48;;;;;;;3.20;0.40;;;;;;;15.77;45.34;97240.91;1218433;75;2931186;-67
2023/11/15 11:12:23;;;;;;;0.40;0.20;;;;;;;16.15;45.31;97240.91;1221401;75;2927879;-71
2023/11/15 11:15:30;;;;;;;1.45;0.55;;;;;;;15.89;45.25;97255.31;1222229;75;2939999;-69
2023/11/15 11:18:11;;;;;;;0.40;0.15;;;;;;;16.52;44.86;97261.47;1221519;83;2928205;-71
2023/11/15 11:20:58;;;;;;;0.35;0.10;;;;;;;15.76;46.05;97264.28;1220687;75;2936096;-68
2023/11/15 11:23:31;;;;;;;0.65;0.20;;;;;;;15.81;45.81;97271.00;1221917;75;2928378;-69
2023/11/15 11:26:40;;;;;;;2.40;0.15;;;;;;;16.01;45.31;97275.25;1222128;75;2987554;-72
2023/11/15 11:29:14;;;;;;;0.10;0.10;;;;;;;16.27;45.52;97283.69;1223270;75;2918196;-71
2023/11/15 11:32:09;;;;;;;1.80;0.10;;;;;;;16.33;44.01;97286.34;1222778;75;2928253;-72
2023/11/15 11:35:04;;;;;;;0.30;0.05;;;;;;;16.69;44.62;97297.13;1223073;75;2927378;-71
2023/11/15 11:37:44;;;;;;;1.20;0.20;;;;;;;16.88;42.54;97291.59;1223751;75;2921827;-69
2023/11/15 11:40:18;;;;;;;1.85;0.20;;;;;;;16.16;43.70;97298.41;1221071;75;2924689;-72
2023/11/15 11:42:56;;;;;;;0.60;0.45;;;;;;;16.82;43.14;97294.47;1221338;75;2938802;-67
2023/11/15 11:45:31;;;;;;;1.00;0.20;;;;;;;16.63;42.84;97316.56;1219544;75;2931442;-69
2023/11/15 11:48:04;;;;;;;0.40;0.10;;;;;;;15.85;44.17;97315.59;1222998;75;2929439;-68
2023/11/15 11:50:36;;;;;;;1.85;0.10;;;;;;;16.50;43.41;97308.22;1222421;75;2930396;-71